Time;durP1;ratioP1;P1;durP2;ratioP2;P2;SDS_P1;SDS_P2;PMS_P1;PMS_P2;Temp;Humidity;BMP_temperature;BMP_pressure;BME280_temperature;BME280_humidity;BME280_pressure;Samples;Min_cycle;Max_cycle;Signal;HPM_P1;HPM_P2
2022/03/01 00:01:44;;;;;;;11.98;9.13;;;0.00;1.00;;;;;;4949982;29;20258;-85
2022/03/01 00:04:12;;;;;;;16.02;8.55;;;0.10;1.00;;;;;;4946631;29;20227;-85
2022/03/01 00:06:38;;;;;;;11.27;8.00;;;0.00;1.00;;;;;;4947119;29;20215;-85
2022/03/01 00:09:05;;;;;;;15.40;8.88;;;0.60;1.00;;;;;;4946106;29;20199;-85
2022/03/01 00:11:33;;;;;;;10.73;8.77;;;0.10;10.50;;;;;;4945421;29;20234;-85
2022/03/01 00:14:00;;;;;;;13.13;8.77;;;0.00;1.00;;;;;;4945884;29;20271;-85
2022/03/01 00:16:42;;;;;;;12.18;9.00;;;-0.30;90.90;;;;;;4947256;29;20207;-85
2022/03/01 00:19:09;;;;;;;10.43;8.77;;;0.00;1.00;;;;;;4948313;29;20549;-85
2022/03/01 00:21:36;;;;;;;12.27;8.65;;;-0.10;1.00;;;;;;4949924;29;20207;-85
2022/03/01 00:24:02;;;;;;;10.25;9.15;;;0.00;1.00;;;;;;4945015;29;20223;-84
2022/03/01 00:26:29;;;;;;;11.77;8.32;;;-0.10;1.00;;;;;;4945542;29;20667;-85
2022/03/01 00:28:57;;;;;;;12.02;8.90;;;0.00;1.00;;;;;;4944967;29;20203;-85
2022/03/01 00:31:24;;;;;;;11.50;8.55;;;-0.10;1.00;;;;;;4947343;29;20266;-84
2022/03/01 00:33:50;;;;;;;18.92;9.98;;;-0.30;99.90;;;;;;4946046;29;20234;-85
2022/03/01 00:36:17;;;;;;;12.70;8.90;;;-0.20;21.90;;;;;;4944556;29;20376;-84
2022/03/01 00:38:43;;;;;;;11.30;7.93;;;-0.10;1.00;;;;;;4948115;29;20211;-85
2022/03/01 00:41:10;;;;;;;12.82;9.35;;;-0.10;1.00;;;;;;4942510;29;20255;-84
2022/03/01 00:43:36;;;;;;;9.15;8.25;;;-0.10;1.00;;;;;;4943631;29;20207;-83
2022/03/01 00:46:04;;;;;;;12.27;9.73;;;-0.20;1.00;;;;;;4947195;29;20616;-86
2022/03/01 00:48:31;;;;;;;14.50;10.13;;;-0.20;1.00;;;;;;4947320;29;20301;-85
2022/03/01 00:50:58;;;;;;;14.30;8.73;;;-0.20;1.00;;;;;;4947680;29;20262;-84
2022/03/01 00:53:25;;;;;;;10.35;8.50;;;-0.20;1.00;;;;;;4946296;29;20207;-84
2022/03/01 00:55:51;;;;;;;8.77;7.80;;;0.10;37.00;;;;;;4956050;28;20258;-82
2022/03/01 00:58:18;;;;;;;10.80;8.55;;;-0.20;1.00;;;;;;4962900;28;20195;-82
2022/03/01 01:00:44;;;;;;;13.43;8.30;;;-0.20;1.00;;;;;;4962509;28;20211;-84
2022/03/01 01:03:12;;;;;;;9.30;7.50;;;-0.30;1.00;;;;;;4961422;28;20203;-84
2022/03/01 01:05:39;;;;;;;13.93;9.15;;;-0.10;99.90;;;;;;4948119;29;20250;-85
2022/03/01 01:08:09;;;;;;;12.10;8.93;;;-0.30;1.00;;;;;;4947652;29;20187;-85
2022/03/01 01:10:35;;;;;;;13.35;9.50;;;-0.70;1.00;;;;;;4946618;29;20204;-85
2022/03/01 01:13:02;;;;;;;10.85;8.43;;;-0.30;1.00;;;;;;4946757;29;20290;-85
2022/03/01 01:15:29;;;;;;;12.68;8.63;;;-0.70;1.00;;;;;;4946185;29;20235;-86
2022/03/01 01:17:55;;;;;;;12.30;8.50;;;-0.30;99.90;;;;;;4947156;29;20666;-85
2022/03/01 01:20:24;;;;;;;13.75;8.18;;;-0.40;1.00;;;;;;4947531;29;20234;-85
2022/03/01 01:22:52;;;;;;;11.73;9.07;;;-0.40;1.00;;;;;;4950512;29;20641;-84
2022/03/01 01:25:20;;;;;;;13.05;9.35;;;-0.30;1.00;;;;;;4957488;29;20249;-83
2022/03/01 01:27:50;;;;;;;14.13;9.50;;;-0.10;1.00;;;;;;4959876;29;20211;-84
2022/03/01 01:30:19;;;;;;;10.18;8.05;;;-0.40;1.00;;;;;;4959622;29;20229;-84
2022/03/01 01:32:48;;;;;;;12.23;8.35;;;-0.40;1.00;;;;;;4959748;29;20239;-84
2022/03/01 01:35:15;;;;;;;13.35;8.55;;;-0.40;1.00;;;;;;4953804;29;20232;-84
2022/03/01 01:37:44;;;;;;;13.77;8.68;;;-0.50;1.00;;;;;;4947674;29;20210;-85
2022/03/01 01:40:13;;;;;;;17.05;10.23;;;-1.50;67.80;;;;;;4947371;29;20286;-85
2022/03/01 01:42:40;;;;;;;16.10;9.90;;;-0.50;99.90;;;;;;4946670;29;20586;-84
2022/03/01 01:45:08;;;;;;;12.05;8.57;;;-0.50;82.50;;;;;;4947080;29;20250;-85
2022/03/01 01:47:35;;;;;;;15.82;9.63;;;-0.60;99.90;;;;;;4946506;29;20260;-84
2022/03/01 01:50:02;;;;;;;12.65;9.07;;;-0.50;49.40;;;;;;4949773;29;20203;-85
2022/03/01 01:52:28;;;;;;;14.63;9.45;;;-0.50;99.90;;;;;;4947261;29;20211;-85
2022/03/01 01:54:56;;;;;;;12.15;9.02;;;-0.40;99.90;;;;;;4945389;29;20708;-85
2022/03/01 01:57:25;;;;;;;12.38;9.90;;;-0.50;99.90;;;;;;4944331;29;20215;-85
2022/03/01 01:59:54;;;;;;;13.45;9.00;;;-0.50;99.90;;;;;;4946280;29;20219;-85
2022/03/01 02:02:22;;;;;;;16.17;9.45;;;-0.40;99.90;;;;;;4945739;29;20207;-85
2022/03/01 02:04:49;;;;;;;12.77;9.90;;;-0.50;99.90;;;;;;4945344;29;20230;-85
2022/03/01 02:07:16;;;;;;;15.13;10.10;;;0.70;1.00;;;;;;4945445;29;20207;-85
2022/03/01 02:09:43;;;;;;;14.57;11.25;;;-0.70;1.00;;;;;;4946123;29;20250;-84
2022/03/01 02:12:11;;;;;;;10.55;9.23;;;-0.70;99.90;;;;;;4946527;29;20223;-86
2022/03/01 02:14:40;;;;;;;11.15;9.95;;;-0.80;1.00;;;;;;4945306;29;20230;-86
2022/03/01 02:17:08;;;;;;;13.27;9.85;;;-0.80;99.90;;;;;;4946496;29;20266;-84
2022/03/01 02:19:35;;;;;;;11.80;9.88;;;-0.90;99.90;;;;;;4948257;29;20737;-84
2022/03/01 02:22:06;;;;;;;14.93;8.93;;;-0.90;1.00;;;;;;4948161;29;20207;-85
2022/03/01 02:24:32;;;;;;;13.57;10.45;;;-0.70;1.50;;;;;;4946303;29;20254;-86
2022/03/01 02:27:02;;;;;;;13.65;9.32;;;-0.80;1.00;;;;;;4945246;29;20207;-85
2022/03/01 02:29:29;;;;;;;17.17;9.38;;;-0.80;1.00;;;;;;4945696;29;20259;-85
2022/03/01 02:31:59;;;;;;;13.02;8.82;;;-0.80;1.00;;;;;;4946150;29;20207;-85
2022/03/01 02:34:25;;;;;;;12.05;9.95;;;-0.80;1.00;;;;;;4945961;29;20227;-84
2022/03/01 02:36:53;;;;;;;19.13;10.20;;;-0.90;1.00;;;;;;4950493;29;20211;-84
2022/03/01 02:39:21;;;;;;;18.92;10.45;;;-0.90;1.00;;;;;;4940633;29;20210;-84
2022/03/01 02:41:48;;;;;;;17.10;10.95;;;;;;;;;;4941917;29;20733;-84
2022/03/01 02:44:15;;;;;;;16.27;10.32;;;-1.00;93.80;;;;;;4942916;29;20226;-84
2022/03/01 02:46:46;;;;;;;10.27;8.63;;;-1.00;98.70;;;;;;4943194;29;20210;-84
2022/03/01 02:49:12;;;;;;;17.75;9.77;;;-1.00;99.90;;;;;;4943548;29;20228;-84
2022/03/01 02:51:40;;;;;;;14.27;10.63;;;-1.00;99.90;;;;;;4943478;29;20573;-84
2022/03/01 02:54:10;;;;;;;14.45;8.75;;;-1.00;1.00;;;;;;4942039;29;20262;-84
2022/03/01 02:56:39;;;;;;;15.85;11.00;;;-1.10;1.00;;;;;;4942964;29;20643;-84
2022/03/01 02:59:07;;;;;;;12.27;8.88;;;-0.30;1.00;;;;;;4946761;29;20299;-85
2022/03/01 03:01:34;;;;;;;15.02;9.63;;;-1.10;1.00;;;;;;4944584;29;20227;-84
2022/03/01 03:04:00;;;;;;;13.10;8.40;;;-1.20;99.90;;;;;;4951799;29;20242;-84
2022/03/01 03:06:28;;;;;;;15.57;9.70;;;;;;;;;;4956136;29;20207;-84
2022/03/01 03:08:56;;;;;;;14.57;8.93;;;-1.20;99.90;;;;;;4957107;29;20206;-84
2022/03/01 03:11:23;;;;;;;14.02;9.98;;;-1.20;99.90;;;;;;4954669;29;20217;-84
2022/03/01 03:13:51;;;;;;;15.88;11.27;;;-1.50;1.00;;;;;;4945387;29;20222;-84
2022/03/01 03:16:17;;;;;;;17.73;11.65;;;-1.30;1.00;;;;;;4944773;29;20235;-84
2022/03/01 03:18:44;;;;;;;14.20;9.55;;;-1.20;99.90;;;;;;4943660;29;20251;-85
2022/03/01 03:21:11;;;;;;;13.32;9.18;;;-1.20;99.90;;;;;;4944268;29;20223;-85
2022/03/01 03:23:38;;;;;;;12.75;9.07;;;-1.30;1.00;;;;;;4945440;29;20211;-86
2022/03/01 03:26:05;;;;;;;14.70;9.02;;;-1.20;1.00;;;;;;4945737;29;20206;-85
2022/03/01 03:28:31;;;;;;;14.65;9.38;;;-1.20;99.90;;;;;;4945672;29;20678;-85
2022/03/01 03:30:59;;;;;;;15.88;9.77;;;-1.10;99.90;;;;;;4945977;29;20203;-84
2022/03/01 03:33:26;;;;;;;12.90;9.38;;;-1.10;99.90;;;;;;4946438;29;20211;-84
2022/03/01 03:35:54;;;;;;;12.77;9.13;;;-1.40;99.90;;;;;;4944164;29;20226;-85
2022/03/01 03:38:21;;;;;;;14.70;9.68;;;-1.20;99.90;;;;;;4945849;29;20754;-85
2022/03/01 03:40:47;;;;;;;12.43;9.65;;;-1.20;1.00;;;;;;4959452;28;20231;-85
2022/03/01 03:43:14;;;;;;;12.88;9.45;;;-1.20;1.00;;;;;;4960518;28;20179;-84
2022/03/01 03:45:40;;;;;;;12.18;9.40;;;-1.20;99.90;;;;;;4959616;28;20207;-84
2022/03/01 03:48:09;;;;;;;14.07;8.60;;;-1.20;99.90;;;;;;4944131;29;20215;-84
2022/03/01 03:50:35;;;;;;;16.67;9.38;;;-1.20;1.00;;;;;;4944533;29;20518;-84
2022/03/01 03:53:02;;;;;;;13.68;9.32;;;-1.20;99.90;;;;;;4944377;29;20218;-85
2022/03/01 03:55:29;;;;;;;9.57;8.45;;;-1.30;99.90;;;;;;4946138;29;20235;-86
2022/03/01 03:57:56;;;;;;;15.00;9.93;;;-1.20;99.90;;;;;;4945621;29;20271;-85
2022/03/01 04:00:23;;;;;;;13.15;8.75;;;-1.20;99.90;;;;;;4945646;29;20258;-84
2022/03/01 04:02:51;;;;;;;15.30;9.98;;;-1.20;99.90;;;;;;4947027;29;20207;-84
2022/03/01 04:05:19;;;;;;;14.52;9.60;;;-1.20;99.90;;;;;;4947746;29;20287;-84
2022/03/01 04:07:47;;;;;;;16.30;9.50;;;-1.30;99.90;;;;;;4944362;29;20203;-86
2022/03/01 04:10:14;;;;;;;12.48;8.85;;;-1.20;99.90;;;;;;4943734;29;20623;-84
2022/03/01 04:12:41;;;;;;;12.40;8.32;;;-1.20;99.90;;;;;;4943288;29;20629;-84
2022/03/01 04:15:10;;;;;;;16.60;9.85;;;-1.20;99.90;;;;;;4943096;29;20721;-84
2022/03/01 04:17:37;;;;;;;16.20;10.02;;;-1.20;1.00;;;;;;4944720;29;20219;-84
2022/03/01 04:20:04;;;;;;;13.88;9.98;;;-1.20;99.90;;;;;;4951655;29;20207;-84
2022/03/01 04:22:32;;;;;;;12.43;9.30;;;-1.20;1.00;;;;;;4948857;29;20231;-84
2022/03/01 04:24:59;;;;;;;16.13;10.90;;;-1.30;9.80;;;;;;4946591;29;20654;-85
2022/03/01 04:27:26;;;;;;;11.75;8.55;;;-0.70;1.00;;;;;;4946030;29;20679;-85
2022/03/01 04:30:03;;;;;;;12.07;8.70;;;-1.20;99.90;;;;;;4946653;29;20208;-85
2022/03/01 04:32:29;;;;;;;11.57;8.63;;;-1.20;1.00;;;;;;4945623;29;20187;-85
2022/03/01 04:34:59;;;;;;;18.02;9.35;;;-1.10;1.00;;;;;;4944600;29;20227;-84
2022/03/01 04:37:25;;;;;;;14.10;9.38;;;-1.30;1.00;;;;;;4945505;29;20574;-84
2022/03/01 04:39:53;;;;;;;15.40;9.25;;;-1.30;1.00;;;;;;4945235;29;20210;-85
2022/03/01 04:42:20;;;;;;;15.80;9.75;;;-1.30;1.00;;;;;;4944800;29;20736;-85
2022/03/01 04:44:46;;;;;;;16.83;9.18;;;-1.60;99.90;;;;;;4946592;29;20227;-85
2022/03/01 04:47:14;;;;;;;15.30;10.45;;;-1.40;1.00;;;;;;4947043;29;20563;-83
2022/03/01 04:49:41;;;;;;;21.52;9.80;;;;;;;;;;4948407;29;20246;-84
2022/03/01 04:52:08;;;;;;;12.75;9.73;;;-1.40;1.00;;;;;;4948072;29;20568;-85
2022/03/01 04:54:35;;;;;;;20.35;9.20;;;-1.60;1.00;;;;;;4971117;23;20222;-85
2022/03/01 04:57:03;;;;;;;19.20;10.77;;;-1.30;1.00;;;;;;4963198;28;20205;-85
2022/03/01 04:59:29;;;;;;;15.20;9.43;;;-1.30;1.00;;;;;;4960781;28;20211;-86
2022/03/01 05:01:56;;;;;;;10.50;8.43;;;-1.30;99.90;;;;;;4957869;29;20227;-85
2022/03/01 05:04:23;;;;;;;17.05;9.38;;;-1.50;1.00;;;;;;4956506;29;20207;-84
2022/03/01 05:06:49;;;;;;;16.25;9.65;;;-1.30;1.00;;;;;;4945966;29;20211;-85
2022/03/01 05:09:16;;;;;;;16.42;8.07;;;-1.30;99.90;;;;;;4945144;29;20239;-86
2022/03/01 05:11:46;;;;;;;11.48;8.32;;;-1.30;99.90;;;;;;4944319;29;20207;-86
2022/03/01 05:14:17;;;;;;;15.13;9.00;;;-1.20;1.00;;;;;;4943567;29;20407;-85
2022/03/01 05:16:45;;;;;;;13.45;7.97;;;-1.30;1.00;;;;;;4945097;29;20195;-85
2022/03/01 05:19:11;;;;;;;14.35;8.68;;;-0.50;99.90;;;;;;4943633;29;20207;-87
2022/03/01 05:21:38;;;;;;;19.15;10.35;;;-1.20;99.90;;;;;;4944893;29;20278;-86
2022/03/01 05:24:06;;;;;;;13.95;10.18;;;-1.20;1.00;;;;;;4943282;29;20258;-87
2022/03/01 05:26:33;;;;;;;15.27;8.60;;;-1.30;99.90;;;;;;4943561;29;20234;-86
2022/03/01 05:29:00;;;;;;;15.25;9.00;;;-1.30;99.90;;;;;;4953938;29;20242;-85
2022/03/01 05:31:28;;;;;;;12.82;7.65;;;-1.20;99.90;;;;;;4962460;28;20223;-85
2022/03/01 05:33:55;;;;;;;14.65;9.07;;;-1.00;1.00;;;;;;4962228;28;20194;-84
2022/03/01 05:36:22;;;;;;;17.23;10.60;;;-1.30;99.90;;;;;;4951032;29;20361;-85
2022/03/01 05:38:49;;;;;;;19.08;11.75;;;-1.30;99.90;;;;;;4946226;29;20262;-85
2022/03/01 05:41:19;;;;;;;23.88;10.45;;;-1.50;99.90;;;;;;4946530;29;20227;-86
2022/03/01 05:43:46;;;;;;;22.92;11.57;;;-1.30;99.90;;;;;;4944905;29;20200;-86
2022/03/01 05:46:12;;;;;;;22.13;10.95;;;-1.30;99.90;;;;;;4944459;29;20227;-85
2022/03/01 05:48:40;;;;;;;13.00;10.23;;;-1.20;1.00;;;;;;4956537;29;20179;-85
2022/03/01 05:51:07;;;;;;;16.73;9.23;;;-1.10;1.00;;;;;;4961988;28;20231;-83
2022/03/01 05:53:34;;;;;;;18.08;11.18;;;-1.20;99.90;;;;;;4962492;28;20207;-83
2022/03/01 05:56:01;;;;;;;15.00;9.77;;;-1.20;99.90;;;;;;4962135;28;20313;-84
2022/03/01 05:58:27;;;;;;;14.00;9.73;;;-1.20;99.90;;;;;;4962326;28;20187;-84
2022/03/01 06:00:54;;;;;;;16.98;10.15;;;-1.20;1.00;;;;;;4962140;28;20222;-84
2022/03/01 06:03:22;;;;;;;14.02;10.05;;;-1.30;99.90;;;;;;4961657;28;20201;-85
2022/03/01 06:05:50;;;;;;;13.32;10.35;;;-1.40;99.90;;;;;;4959097;29;20220;-85
2022/03/01 06:08:16;;;;;;;19.15;10.68;;;-1.30;99.90;;;;;;4956882;29;20206;-85
2022/03/01 06:10:43;;;;;;;13.95;9.30;;;-1.40;99.90;;;;;;4956023;29;20206;-85
2022/03/01 06:13:10;;;;;;;18.63;10.85;;;-1.40;99.90;;;;;;4953256;29;20261;-85
2022/03/01 06:15:37;;;;;;;17.85;10.45;;;-1.40;99.90;;;;;;4951126;29;20278;-85
2022/03/01 06:18:06;;;;;;;14.93;9.10;;;-1.50;99.90;;;;;;4954918;29;20211;-85
2022/03/01 06:20:32;;;;;;;14.27;9.80;;;-1.30;99.90;;;;;;4949378;29;20211;-87
2022/03/01 06:23:00;;;;;;;15.57;9.63;;;-1.30;99.90;;;;;;4943065;29;20569;-86
2022/03/01 06:25:27;;;;;;;22.23;10.88;;;-1.20;99.90;;;;;;4941060;29;20259;-85
2022/03/01 06:27:54;;;;;;;13.13;10.05;;;-1.20;1.00;;;;;;4941555;29;20583;-85
2022/03/01 06:30:21;;;;;;;21.98;12.27;;;-1.20;99.90;;;;;;4941794;29;20274;-85
2022/03/01 06:32:48;;;;;;;14.40;9.55;;;-1.20;99.90;;;;;;4943376;29;20202;-85
2022/03/01 06:35:15;;;;;;;16.92;9.77;;;-1.10;99.90;;;;;;4943510;29;20227;-87
2022/03/01 06:37:42;;;;;;;14.05;8.55;;;-1.10;99.90;;;;;;4946759;29;20214;-85
2022/03/01 06:40:12;;;;;;;13.52;8.82;;;-0.80;53.70;;;;;;4946103;29;20266;-86
2022/03/01 06:42:39;;;;;;;11.80;8.68;;;-1.20;99.90;;;;;;4943129;29;20302;-86
2022/03/01 06:45:07;;;;;;;13.75;9.68;;;-1.00;99.90;;;;;;4946610;29;20255;-86
2022/03/01 06:47:34;;;;;;;19.20;10.00;;;-1.00;1.00;;;;;;4952334;29;20235;-86
2022/03/01 06:50:01;;;;;;;15.43;10.25;;;-1.10;1.00;;;;;;4952696;29;20606;-86
2022/03/01 06:52:28;;;;;;;15.30;10.00;;;-1.10;1.00;;;;;;4955584;29;20242;-86
2022/03/01 06:54:55;;;;;;;16.05;9.65;;;-0.80;1.00;;;;;;4944038;29;20235;-86
2022/03/01 06:57:23;;;;;;;21.25;9.73;;;-0.90;1.00;;;;;;4945375;29;20211;-86
2022/03/01 06:59:53;;;;;;;17.83;10.90;;;-0.80;1.00;;;;;;4945156;29;20214;-86
2022/03/01 07:02:19;;;;;;;13.60;10.25;;;-0.90;1.00;;;;;;4942799;29;20231;-86
2022/03/01 07:04:46;;;;;;;12.38;9.60;;;-0.70;1.00;;;;;;4941351;29;20231;-86
2022/03/01 07:07:13;;;;;;;16.88;9.75;;;-0.70;1.00;;;;;;4946480;29;20195;-85
2022/03/01 07:09:41;;;;;;;14.95;8.80;;;-0.90;1.00;;;;;;4952475;29;20609;-86
2022/03/01 07:12:08;;;;;;;16.35;8.55;;;-0.70;99.90;;;;;;4948486;29;20207;-87
2022/03/01 07:14:36;;;;;;;16.25;9.52;;;-0.40;1.00;;;;;;4945126;29;20231;-86
2022/03/01 07:17:03;;;;;;;17.38;8.93;;;-0.40;99.90;;;;;;4948042;29;20231;-86
2022/03/01 07:19:30;;;;;;;12.63;8.73;;;-0.40;99.90;;;;;;4946610;29;20203;-86
2022/03/01 07:22:00;;;;;;;14.68;9.02;;;0.10;99.90;;;;;;4948922;29;20640;-87
2022/03/01 07:24:27;;;;;;;10.65;8.57;;;-0.70;1.00;;;;;;4949717;29;20689;-86
2022/03/01 07:26:54;;;;;;;15.05;8.52;;;-0.10;99.90;;;;;;4951390;29;20211;-86
2022/03/01 07:29:21;;;;;;;12.88;9.85;;;0.00;99.90;;;;;;4946744;29;20211;-86
2022/03/01 07:31:49;;;;;;;15.23;8.65;;;0.00;99.90;;;;;;4945721;29;20293;-86
2022/03/01 07:34:15;;;;;;;11.43;7.88;;;0.40;99.90;;;;;;4945573;29;20207;-86
2022/03/01 07:36:42;;;;;;;13.45;9.15;;;0.30;99.90;;;;;;4956052;28;20175;-85
2022/03/01 07:39:09;;;;;;;13.02;8.55;;;0.30;99.90;;;;;;4960501;28;20187;-85
2022/03/01 07:41:36;;;;;;;11.85;8.15;;;0.40;99.90;;;;;;4960431;28;20207;-85
2022/03/01 07:44:02;;;;;;;14.68;9.18;;;0.50;99.90;;;;;;4960481;28;20188;-84
2022/03/01 07:46:29;;;;;;;15.88;9.82;;;0.50;94.70;;;;;;4956093;28;20203;-86
2022/03/01 07:48:57;;;;;;;12.40;9.00;;;0.60;97.10;;;;;;4946531;29;20206;-85
2022/03/01 07:51:27;;;;;;;14.07;9.15;;;0.60;99.90;;;;;;4943261;29;20211;-89
2022/03/01 07:53:53;;;;;;;14.80;8.85;;;0.70;99.20;;;;;;4946186;29;20203;-86
2022/03/01 07:56:21;;;;;;;15.73;9.05;;;0.70;76.80;;;;;;4954647;29;20238;-87
2022/03/01 07:58:48;;;;;;;11.73;8.73;;;0.70;58.30;;;;;;4959263;29;20203;-86
2022/03/01 08:01:15;;;;;;;11.85;7.82;;;0.60;99.90;;;;;;4947282;29;20207;-87
2022/03/01 08:03:42;;;;;;;12.95;8.70;;;0.80;33.70;;;;;;4946760;29;20258;-86
2022/03/01 08:06:10;;;;;;;12.43;10.65;;;0.90;7.70;;;;;;4944058;29;20223;-87
2022/03/01 08:08:37;;;;;;;12.15;8.82;;;0.90;22.20;;;;;;4944706;29;20282;-87
2022/03/01 08:11:04;;;;;;;10.65;7.97;;;1.00;12.20;;;;;;4954674;29;20239;-87
2022/03/01 08:13:31;;;;;;;9.68;8.00;;;1.10;10.90;;;;;;4962807;29;20235;-86
2022/03/01 08:15:58;;;;;;;14.20;8.07;;;1.40;1.00;;;;;;4963688;28;20316;-86
2022/03/01 08:18:28;;;;;;;14.40;8.90;;;1.50;54.70;;;;;;4962838;28;20203;-85
2022/03/01 08:20:55;;;;;;;12.98;8.55;;;1.70;1.00;;;;;;4963367;28;20210;-86
2022/03/01 08:23:24;;;;;;;14.32;9.48;;;1.50;1.00;;;;;;4963351;28;20218;-86
2022/03/01 08:25:51;;;;;;;17.23;8.95;;;1.60;1.00;;;;;;4962518;29;20223;-86
2022/03/01 08:28:18;;;;;;;15.18;8.18;;;1.40;99.90;;;;;;4962974;29;20207;-86
2022/03/01 08:30:46;;;;;;;10.10;7.35;;;1.60;1.00;;;;;;4963279;28;20218;-86
2022/03/01 08:33:15;;;;;;;15.40;8.05;;;1.60;1.00;;;;;;4963237;28;20195;-86
2022/03/01 08:35:42;;;;;;;12.20;7.70;;;1.60;1.00;;;;;;4950296;29;20231;-87
2022/03/01 08:38:09;;;;;;;13.60;8.38;;;1.60;1.00;;;;;;4947888;29;20207;-87
2022/03/01 08:40:39;;;;;;;10.80;8.70;;;1.70;1.00;;;;;;4944829;29;20211;-87
2022/03/01 08:43:06;;;;;;;12.38;9.23;;;1.80;1.00;;;;;;4943939;29;20222;-87
2022/03/01 08:45:36;;;;;;;14.50;9.15;;;1.80;1.00;;;;;;4945000;29;20356;-86
2022/03/01 08:48:04;;;;;;;11.95;7.43;;;1.80;7.80;;;;;;4960973;29;20218;-87
2022/03/01 08:50:32;;;;;;;16.23;8.70;;;1.90;1.00;;;;;;4960014;29;20199;-87
2022/03/01 08:52:59;;;;;;;14.63;8.77;;;2.10;1.00;;;;;;4957041;29;20206;-87
2022/03/01 08:55:26;;;;;;;13.40;9.18;;;1.80;1.00;;;;;;4943110;29;20365;-87
2022/03/01 08:57:55;;;;;;;10.60;8.05;;;2.30;1.00;;;;;;4942600;29;20203;-87
2022/03/01 09:00:22;;;;;;;13.88;8.27;;;2.30;1.00;;;;;;4941622;29;20229;-88
2022/03/01 09:02:49;;;;;;;20.65;11.23;;;2.30;1.00;;;;;;4942196;29;20230;-88
2022/03/01 09:05:15;;;;;;;15.70;9.38;;;2.30;1.00;;;;;;4940566;29;20230;-87
2022/03/01 09:07:42;;;;;;;11.63;8.57;;;2.30;1.00;;;;;;4951976;29;20191;-87
2022/03/01 09:10:10;;;;;;;8.35;7.15;;;2.50;1.00;;;;;;4960083;28;20198;-87
2022/03/01 09:12:37;;;;;;;12.57;7.50;;;2.50;1.00;;;;;;4953930;29;20614;-87
2022/03/01 09:15:06;;;;;;;10.77;7.32;;;2.50;1.00;;;;;;4949164;29;20227;-87
2022/03/01 09:17:33;;;;;;;13.63;7.85;;;2.60;1.00;;;;;;4959790;29;20195;-86
2022/03/01 09:20:00;;;;;;;13.02;8.27;;;2.50;1.00;;;;;;4961341;28;20211;-86
2022/03/01 09:22:28;;;;;;;12.07;7.25;;;2.70;1.00;;;;;;4961877;28;20242;-85
2022/03/01 09:24:54;;;;;;;9.70;7.75;;;2.70;1.00;;;;;;4961785;28;20239;-86
2022/03/01 09:27:23;;;;;;;12.23;8.65;;;3.10;48.70;;;;;;4961577;28;20211;-87
2022/03/01 09:29:51;;;;;;;14.18;8.48;;;;;;;;;;4961600;28;20197;-85
2022/03/01 09:32:19;;;;;;;11.23;8.00;;;2.90;1.00;;;;;;4961438;28;20210;-85
2022/03/01 09:34:46;;;;;;;8.82;8.02;;;2.90;1.00;;;;;;4961000;28;20230;-86
2022/03/01 09:37:12;;;;;;;14.63;8.32;;;2.70;1.00;;;;;;4954108;29;20207;-87
2022/03/01 09:39:39;;;;;;;10.23;8.63;;;2.80;1.00;;;;;;4948671;29;20207;-87
2022/03/01 09:42:08;;;;;;;13.00;7.47;;;3.00;1.00;;;;;;4950005;29;20227;-87
2022/03/01 09:44:35;;;;;;;12.02;8.43;;;3.10;1.00;;;;;;4946167;29;20231;-88
2022/03/01 09:47:03;;;;;;;11.13;7.88;;;3.10;1.00;;;;;;4947071;29;20242;-87
2022/03/01 09:49:31;;;;;;;13.10;7.78;;;3.10;1.00;;;;;;4945718;29;20215;-87
2022/03/01 09:51:57;;;;;;;10.63;7.90;;;3.30;1.00;;;;;;4946994;29;20219;-88
2022/03/01 09:54:26;;;;;;;8.55;7.32;;;3.40;54.30;;;;;;4898258;29;1381994;-87
2022/03/01 09:56:53;;;;;;;12.38;8.20;;;3.40;1.00;;;;;;4944784;29;20195;-87
2022/03/01 09:59:21;;;;;;;10.95;7.25;;;3.50;1.00;;;;;;4952116;29;20199;-88
2022/03/01 10:01:49;;;;;;;11.93;7.88;;;3.60;1.00;;;;;;4957661;29;20238;-86
2022/03/01 10:04:16;;;;;;;10.43;8.20;;;3.50;1.00;;;;;;4953747;29;20239;-86
2022/03/01 10:06:46;;;;;;;12.10;7.00;;;3.70;1.00;;;;;;4947494;29;20242;-87
2022/03/01 10:09:15;;;;;;;12.07;6.90;;;3.70;1.00;;;;;;4946023;29;20230;-87
2022/03/01 10:11:43;;;;;;;11.30;7.80;;;3.70;1.00;;;;;;4947384;29;20207;-87
2022/03/01 10:14:11;;;;;;;11.60;8.32;;;4.00;1.00;;;;;;4945191;29;20238;-86
2022/03/01 10:16:40;;;;;;;15.13;9.55;;;3.90;13.60;;;;;;4945989;29;20275;-87
2022/03/01 10:19:13;;;;;;;9.75;8.75;;;4.90;1.00;;;;;;4947313;29;20186;-87
2022/03/01 10:21:41;;;;;;;11.50;7.88;;;;;;;;;;4948768;29;20260;-87
2022/03/01 10:24:13;;;;;;;9.27;7.82;;;5.50;1.00;;;;;;4948602;29;20397;-86
2022/03/01 10:26:43;;;;;;;11.80;8.57;;;5.40;1.00;;;;;;4948214;29;20211;-87
2022/03/01 10:29:11;;;;;;;9.68;8.02;;;;;;;;;;4955327;28;20203;-86
2022/03/01 10:31:38;;;;;;;8.73;7.85;;;;;;;;;;4961154;28;20191;-86
2022/03/01 10:34:09;;;;;;;9.93;8.60;;;4.20;1.00;;;;;;4960568;29;20282;-87
2022/03/01 10:36:41;;;;;;;10.98;7.80;;;4.30;1.00;;;;;;4960139;28;20194;-87
2022/03/01 10:39:14;;;;;;;11.23;7.95;;;5.00;1.00;;;;;;4954235;29;20211;-87
2022/03/01 10:41:48;;;;;;;8.73;7.70;;;4.30;1.00;;;;;;4951366;29;20202;-87
2022/03/01 10:44:18;;;;;;;9.63;7.85;;;4.50;1.00;;;;;;4953454;29;20203;-87
2022/03/01 10:46:49;;;;;;;9.00;7.18;;;4.50;1.00;;;;;;4951895;29;20203;-87
2022/03/01 10:49:20;;;;;;;8.88;7.05;;;4.50;1.00;;;;;;4958014;29;20254;-88
2022/03/01 10:51:51;;;;;;;10.25;8.02;;;4.50;1.00;;;;;;4958020;29;20210;-88
2022/03/01 10:54:31;;;;;;;12.18;7.10;;;4.80;1.00;;;;;;4954912;28;20215;-86
2022/03/01 10:57:01;;;;;;;14.13;7.50;;;4.70;1.00;;;;;;4970638;23;20230;-87
2022/03/01 10:59:33;;;;;;;9.70;7.82;;;4.80;1.00;;;;;;4951074;29;20209;-87
2022/03/01 11:02:03;;;;;;;8.65;7.43;;;3.90;1.00;;;;;;4949855;29;20193;-87
2022/03/01 11:07:47;;;;;;;8.15;7.45;;;4.90;1.00;;;;;;4927878;29;20278;-87
2022/03/01 11:10:17;;;;;;;11.55;7.57;;;5.00;1.00;;;;;;4929423;29;20231;-87
2022/03/01 11:13:03;;;;;;;9.55;7.78;;;5.10;1.00;;;;;;4930071;29;20275;-86
2022/03/01 11:15:50;;;;;;;8.18;6.63;;;5.10;1.00;;;;;;4910076;29;20231;-87
2022/03/01 11:18:46;;;;;;;9.18;7.72;;;5.20;1.00;;;;;;4930410;29;20211;-86
2022/03/01 11:21:16;;;;;;;10.20;7.50;;;5.30;1.00;;;;;;4931838;29;20196;-87
2022/03/01 11:23:58;;;;;;;12.20;7.65;;;5.30;1.00;;;;;;4941217;28;20243;-86
2022/03/01 11:26:38;;;;;;;9.48;6.57;;;5.40;1.00;;;;;;4940904;28;20212;-86
2022/03/01 11:29:30;;;;;;;11.07;6.55;;;5.30;1.00;;;;;;4940332;28;20188;-86
2022/03/01 11:32:01;;;;;;;9.07;6.70;;;5.30;1.00;;;;;;4932289;29;20207;-87
2022/03/01 11:35:11;;;;;;;10.18;7.18;;;5.40;1.00;;;;;;4926092;29;20227;-86
2022/03/01 11:43:43;;;;;;;7.75;6.70;;;5.60;1.00;;;;;;4932708;29;20231;-88
2022/03/01 11:46:29;;;;;;;9.18;6.55;;;5.80;1.00;;;;;;4936276;29;20231;-86
2022/03/01 11:52:01;;;;;;;6.60;5.80;;;;;;;;;;4889371;29;20671;-87
2022/03/01 11:54:36;;;;;;;8.65;6.85;;;5.80;1.00;;;;;;4931021;29;20224;-87
2022/03/01 11:57:32;;;;;;;9.95;5.80;;;5.80;1.00;;;;;;4929918;29;20262;-87
2022/03/01 12:00:26;;;;;;;6.13;5.47;;;6.30;1.00;;;;;;4927314;29;20218;-87
2022/03/01 12:03:04;;;;;;;6.50;5.53;;;5.90;1.00;;;;;;4929215;29;20204;-87
2022/03/01 12:08:55;;;;;;;8.20;6.43;;;6.80;1.00;;;;;;4925744;29;20299;-87
2022/03/01 12:15:44;;;;;;;5.38;4.80;;;6.10;1.00;;;;;;4795783;29;20244;-87
2022/03/01 12:18:49;;;;;;;6.70;5.90;;;6.10;1.00;;;;;;4919146;29;20226;-86
2022/03/01 12:21:29;;;;;;;6.40;5.80;;;5.00;1.00;;;;;;4924531;29;20235;-88
2022/03/01 12:24:09;;;;;;;6.40;5.70;;;;;;;;;;4926191;29;20203;-86
2022/03/01 12:27:03;;;;;;;;;;;;;;;;;;;;;
2022/03/01 12:29:39;;;;;;;7.45;5.90;;;6.40;1.00;;;;;;4934017;29;20203;-87
2022/03/01 12:36:03;;;;;;;5.85;5.15;;;6.40;1.00;;;;;;4914456;29;20274;-87
2022/03/01 12:38:41;;;;;;;6.60;5.03;;;6.50;1.00;;;;;;4928785;29;20287;-86
2022/03/01 12:41:18;;;;;;;7.10;6.40;;;6.50;1.00;;;;;;4931853;29;20664;-87
2022/03/01 12:46:45;;;;;;;6.65;5.53;;;6.60;1.00;;;;;;4928008;29;20302;-88
2022/03/01 12:49:17;;;;;;;6.47;5.82;;;6.70;1.00;;;;;;4931276;29;20204;-86
2022/03/01 12:51:52;;;;;;;8.43;5.85;;;6.40;1.00;;;;;;4929857;29;20211;-87
2022/03/01 12:54:26;;;;;;;7.85;6.25;;;6.60;1.00;;;;;;4930524;29;20243;-87
2022/03/01 12:57:15;;;;;;;5.97;5.45;;;6.60;1.00;;;;;;4932503;29;20247;-87
2022/03/01 12:59:55;;;;;;;8.13;5.78;;;6.80;1.00;;;;;;4933231;29;20246;-88
2022/03/01 13:03:07;;;;;;;;;;;;;;;;;;;;;
2022/03/01 13:06:03;;;;;;;5.57;4.75;;;6.90;1.00;;;;;;4929420;29;20235;-86
2022/03/01 13:11:17;;;;;;;6.47;5.25;;;6.60;1.00;;;;;;4920696;29;20219;-86
2022/03/01 13:13:54;;;;;;;7.55;6.07;;;6.90;1.00;;;;;;4930958;29;20266;-86
2022/03/01 13:25:28;;;;;;;6.57;5.30;;;6.70;1.00;;;;;;4921358;29;20222;-86
2022/03/01 13:28:10;;;;;;;5.70;5.13;;;7.20;1.00;;;;;;4932402;29;20207;-87
2022/03/01 13:30:50;;;;;;;8.10;5.40;;;6.70;1.00;;;;;;4927640;29;20244;-86
2022/03/01 13:33:45;;;;;;;8.43;6.25;;;7.20;1.00;;;;;;4925110;29;20223;-87
2022/03/01 13:36:27;;;;;;;9.00;6.50;;;9.10;1.00;;;;;;4926295;29;20706;-87
2022/03/01 13:39:30;;;;;;;6.07;5.47;;;5.20;1.00;;;;;;4928679;29;20354;-87
2022/03/01 13:42:04;;;;;;;9.02;5.55;;;6.90;1.00;;;;;;4927280;29;20279;-87
2022/03/01 13:44:34;;;;;;;6.82;5.60;;;6.90;1.00;;;;;;4928211;29;20292;-85